sensor_id;sensor_type;location;lat;lon;timestamp;pressure;altitude;pressure_sealevel;temperature;humidity
73748;BME280;62056;52.130;5.428;2023-04-03T00:00:47;103329.19;;;4.60;57.46
73748;BME280;62056;52.130;5.428;2023-04-03T00:03:17;103334.84;;;4.57;57.45
73748;BME280;62056;52.130;5.428;2023-04-03T00:05:45;103332.53;;;4.54;57.62
73748;BME280;62056;52.130;5.428;2023-04-03T00:08:12;103346.91;;;4.51;57.93
73748;BME280;62056;52.130;5.428;2023-04-03T00:10:39;103345.47;;;4.49;57.84
73748;BME280;62056;52.130;5.428;2023-04-03T00:13:06;103342.19;;;4.46;57.11
73748;BME280;62056;52.130;5.428;2023-04-03T00:15:34;103347.00;;;4.43;57.80
73748;BME280;62056;52.130;5.428;2023-04-03T00:18:01;103341.09;;;4.41;57.56
73748;BME280;62056;52.130;5.428;2023-04-03T00:20:29;103341.28;;;4.39;58.09
73748;BME280;62056;52.130;5.428;2023-04-03T00:22:55;103344.13;;;4.38;59.58
73748;BME280;62056;52.130;5.428;2023-04-03T00:25:22;103344.47;;;4.35;58.64
73748;BME280;62056;52.130;5.428;2023-04-03T00:27:49;103344.00;;;4.31;58.45
73748;BME280;62056;52.130;5.428;2023-04-03T00:30:17;103343.59;;;4.28;58.13
73748;BME280;62056;52.130;5.428;2023-04-03T00:32:44;103349.84;;;4.26;58.71
73748;BME280;62056;52.130;5.428;2023-04-03T00:35:39;103340.66;;;4.22;58.64
73748;BME280;62056;52.130;5.428;2023-04-03T00:38:33;103347.94;;;4.20;58.54
73748;BME280;62056;52.130;5.428;2023-04-03T00:41:00;103339.38;;;4.18;59.18
73748;BME280;62056;52.130;5.428;2023-04-03T00:43:54;103351.94;;;4.16;59.11
73748;BME280;62056;52.130;5.428;2023-04-03T00:46:21;103353.91;;;4.14;58.74
73748;BME280;62056;52.130;5.428;2023-04-03T00:48:48;103362.84;;;4.13;59.19
73748;BME280;62056;52.130;5.428;2023-04-03T00:51:23;103358.75;;;4.11;59.42
73748;BME280;62056;52.130;5.428;2023-04-03T00:54:25;103363.38;;;4.09;59.99
73748;BME280;62056;52.130;5.428;2023-04-03T00:56:54;103361.91;;;4.06;59.65
73748;BME280;62056;52.130;5.428;2023-04-03T00:59:30;103357.19;;;4.01;59.32
73748;BME280;62056;52.130;5.428;2023-04-03T01:01:58;103362.63;;;4.00;58.99
73748;BME280;62056;52.130;5.428;2023-04-03T01:04:30;103360.19;;;3.98;59.97
73748;BME280;62056;52.130;5.428;2023-04-03T01:07:02;103360.53;;;3.95;60.18
73748;BME280;62056;52.130;5.428;2023-04-03T01:09:30;103361.72;;;3.93;59.99
73748;BME280;62056;52.130;5.428;2023-04-03T01:12:24;103373.44;;;3.90;61.26
73748;BME280;62056;52.130;5.428;2023-04-03T01:14:54;103370.00;;;3.90;59.46
73748;BME280;62056;52.130;5.428;2023-04-03T01:17:29;103371.97;;;3.88;61.02
73748;BME280;62056;52.130;5.428;2023-04-03T01:25:44;103372.88;;;3.80;61.29
73748;BME280;62056;52.130;5.428;2023-04-03T01:28:38;103370.56;;;3.77;59.94
73748;BME280;62056;52.130;5.428;2023-04-03T01:33:54;103365.84;;;3.72;60.62
73748;BME280;62056;52.130;5.428;2023-04-03T01:36:26;103362.59;;;3.70;60.98
73748;BME280;62056;52.130;5.428;2023-04-03T01:38:55;103365.75;;;3.65;61.21
73748;BME280;62056;52.130;5.428;2023-04-03T01:41:22;103364.31;;;3.63;61.62
73748;BME280;62056;52.130;5.428;2023-04-03T01:43:54;103364.47;;;3.61;61.29
73748;BME280;62056;52.130;5.428;2023-04-03T01:46:21;103361.19;;;3.59;61.05
73748;BME280;62056;52.130;5.428;2023-04-03T01:48:48;103357.75;;;3.59;61.99
73748;BME280;62056;52.130;5.428;2023-04-03T01:51:15;103366.84;;;3.56;61.79
73748;BME280;62056;52.130;5.428;2023-04-03T01:53:42;103358.47;;;3.53;61.42
73748;BME280;62056;52.130;5.428;2023-04-03T01:56:09;103356.16;;;3.50;61.50
73748;BME280;62056;52.130;5.428;2023-04-03T01:58:36;103369.53;;;3.48;62.27
73748;BME280;62056;52.130;5.428;2023-04-03T02:01:03;103364.44;;;3.47;62.08
73748;BME280;62056;52.130;5.428;2023-04-03T02:03:57;103366.59;;;3.43;62.08
73748;BME280;62056;52.130;5.428;2023-04-03T02:06:24;103366.59;;;3.43;62.53
73748;BME280;62056;52.130;5.428;2023-04-03T02:08:51;103367.13;;;3.38;61.77
73748;BME280;62056;52.130;5.428;2023-04-03T02:11:20;103370.94;;;3.36;61.70
73748;BME280;62056;52.130;5.428;2023-04-03T02:13:47;103373.72;;;3.34;62.14
73748;BME280;62056;52.130;5.428;2023-04-03T02:16:13;103377.34;;;3.33;63.69
73748;BME280;62056;52.130;5.428;2023-04-03T02:18:40;103371.63;;;3.30;62.84
73748;BME280;62056;52.130;5.428;2023-04-03T02:21:06;103381.31;;;3.29;62.99
73748;BME280;62056;52.130;5.428;2023-04-03T02:23:33;103385.13;;;3.27;62.92
73748;BME280;62056;52.130;5.428;2023-04-03T02:26:04;103385.47;;;3.23;63.89
73748;BME280;62056;52.130;5.428;2023-04-03T02:28:32;103381.19;;;3.22;63.66
73748;BME280;62056;52.130;5.428;2023-04-03T02:30:59;103380.56;;;3.20;62.82
73748;BME280;62056;52.130;5.428;2023-04-03T02:33:26;103375.50;;;3.19;63.95
73748;BME280;62056;52.130;5.428;2023-04-03T02:35:54;103379.91;;;3.18;64.22
73748;BME280;62056;52.130;5.428;2023-04-03T02:38:22;103375.97;;;3.14;63.75
73748;BME280;62056;52.130;5.428;2023-04-03T02:40:48;103379.78;;;3.12;63.02
73748;BME280;62056;52.130;5.428;2023-04-03T02:43:43;103376.50;;;3.10;63.60
73748;BME280;62056;52.130;5.428;2023-04-03T02:46:09;103387.19;;;3.08;63.83
73748;BME280;62056;52.130;5.428;2023-04-03T02:48:36;103384.75;;;3.07;63.89
73748;BME280;62056;52.130;5.428;2023-04-03T02:51:03;103400.53;;;3.07;63.85
73748;BME280;62056;52.130;5.428;2023-04-03T02:53:29;103392.00;;;3.04;64.22
73748;BME280;62056;52.130;5.428;2023-04-03T02:55:56;103394.00;;;3.02;63.28
73748;BME280;62056;52.130;5.428;2023-04-03T02:58:23;103401.03;;;3.02;64.50
73748;BME280;62056;52.130;5.428;2023-04-03T03:00:49;103395.78;;;3.02;64.41
73748;BME280;62056;52.130;5.428;2023-04-03T03:03:16;103403.00;;;3.00;63.37
73748;BME280;62056;52.130;5.428;2023-04-03T03:05:43;103411.09;;;2.98;64.28
73748;BME280;62056;52.130;5.428;2023-04-03T03:08:09;103411.25;;;2.97;65.68
73748;BME280;62056;52.130;5.428;2023-04-03T03:10:36;103416.88;;;2.94;64.81
73748;BME280;62056;52.130;5.428;2023-04-03T03:13:04;103414.56;;;2.91;64.62
73748;BME280;62056;52.130;5.428;2023-04-03T03:15:31;103419.84;;;2.91;65.19
73748;BME280;62056;52.130;5.428;2023-04-03T03:17:57;103427.88;;;2.89;64.69
73748;BME280;62056;52.130;5.428;2023-04-03T03:20:24;103430.69;;;2.88;65.04
73748;BME280;62056;52.130;5.428;2023-04-03T03:22:51;103425.59;;;2.86;65.47
73748;BME280;62056;52.130;5.428;2023-04-03T03:25:17;103419.88;;;2.82;65.29
73748;BME280;62056;52.130;5.428;2023-04-03T03:27:44;103426.94;;;2.82;64.94
73748;BME280;62056;52.130;5.428;2023-04-03T03:30:12;103422.84;;;2.79;65.30
73748;BME280;62056;52.130;5.428;2023-04-03T03:32:38;103424.81;;;2.77;65.00
73748;BME280;62056;52.130;5.428;2023-04-03T03:35:05;103425.00;;;2.76;65.06
73748;BME280;62056;52.130;5.428;2023-04-03T03:37:32;103427.78;;;2.74;65.79
73748;BME280;62056;52.130;5.428;2023-04-03T03:39:59;103431.56;;;2.72;65.91
73748;BME280;62056;52.130;5.428;2023-04-03T03:42:25;103426.47;;;2.70;65.63
73748;BME280;62056;52.130;5.428;2023-04-03T03:44:52;103430.28;;;2.68;64.62
73748;BME280;62056;52.130;5.428;2023-04-03T03:47:18;103424.38;;;2.66;66.26
73748;BME280;62056;52.130;5.428;2023-04-03T03:49:45;103428.16;;;2.63;65.56
73748;BME280;62056;52.130;5.428;2023-04-03T03:52:12;103423.88;;;2.62;65.72
73748;BME280;62056;52.130;5.428;2023-04-03T03:54:39;103429.31;;;2.60;66.25
73748;BME280;62056;52.130;5.428;2023-04-03T03:57:05;103428.69;;;2.58;66.92
73748;BME280;62056;52.130;5.428;2023-04-03T03:59:32;103429.81;;;2.56;67.51
73748;BME280;62056;52.130;5.428;2023-04-03T04:01:59;103433.44;;;2.55;66.81
73748;BME280;62056;52.130;5.428;2023-04-03T04:04:26;103431.97;;;2.52;66.66
73748;BME280;62056;52.130;5.428;2023-04-03T04:06:52;103440.84;;;2.51;66.42
73748;BME280;62056;52.130;5.428;2023-04-03T04:09:19;103434.94;;;2.49;66.18
73748;BME280;62056;52.130;5.428;2023-04-03T04:11:45;103428.22;;;2.47;66.32
73748;BME280;62056;52.130;5.428;2023-04-03T04:14:12;103430.19;;;2.45;65.82
73748;BME280;62056;52.130;5.428;2023-04-03T04:16:39;103438.22;;;2.43;66.45
73748;BME280;62056;52.130;5.428;2023-04-03T04:19:06;103447.09;;;2.42;66.74
73748;BME280;62056;52.130;5.428;2023-04-03T04:21:34;103438.56;;;2.40;65.80
73748;BME280;62056;52.130;5.428;2023-04-03T04:24:01;103447.41;;;2.39;66.94
73748;BME280;62056;52.130;5.428;2023-04-03T04:26:28;103436.25;;;2.37;66.87
73748;BME280;62056;52.130;5.428;2023-04-03T04:28:54;103447.13;;;2.34;66.97
73748;BME280;62056;52.130;5.428;2023-04-03T04:31:21;103446.47;;;2.32;67.03
73748;BME280;62056;52.130;5.428;2023-04-03T04:33:48;103451.06;;;2.30;66.90
73748;BME280;62056;52.130;5.428;2023-04-03T04:36:15;103451.88;;;2.30;66.91
73748;BME280;62056;52.130;5.428;2023-04-03T04:38:42;103445.97;;;2.28;67.24
73748;BME280;62056;52.130;5.428;2023-04-03T04:41:09;103445.16;;;2.28;67.30
73748;BME280;62056;52.130;5.428;2023-04-03T04:43:35;103457.63;;;2.26;67.10
73748;BME280;62056;52.130;5.428;2023-04-03T04:46:06;103458.59;;;2.25;67.82
73748;BME280;62056;52.130;5.428;2023-04-03T04:48:34;103465.00;;;2.22;67.00
73748;BME280;62056;52.130;5.428;2023-04-03T04:51:01;103461.72;;;2.20;67.97
73748;BME280;62056;52.130;5.428;2023-04-03T04:53:28;103458.44;;;2.18;68.26
73748;BME280;62056;52.130;5.428;2023-04-03T04:55:55;103457.78;;;2.16;66.77
73748;BME280;62056;52.130;5.428;2023-04-03T04:58:22;103457.13;;;2.14;66.87
73748;BME280;62056;52.130;5.428;2023-04-03T05:00:49;103456.47;;;2.12;67.49
73748;BME280;62056;52.130;5.428;2023-04-03T05:03:15;103462.53;;;2.12;67.39
73748;BME280;62056;52.130;5.428;2023-04-03T05:05:42;103457.47;;;2.11;67.23
73748;BME280;62056;52.130;5.428;2023-04-03T05:08:09;103457.81;;;2.08;67.51
73748;BME280;62056;52.130;5.428;2023-04-03T05:10:35;103466.69;;;2.07;68.43
73748;BME280;62056;52.130;5.428;2023-04-03T05:13:02;103467.81;;;2.04;67.93
73748;BME280;62056;52.130;5.428;2023-04-03T05:15:29;103467.00;;;2.03;67.89
73748;BME280;62056;52.130;5.428;2023-04-03T05:17:55;103463.72;;;2.01;68.64
73748;BME280;62056;52.130;5.428;2023-04-03T05:20:22;103465.53;;;2.01;68.67
73748;BME280;62056;52.130;5.428;2023-04-03T05:22:49;103462.25;;;1.99;66.95
73748;BME280;62056;52.130;5.428;2023-04-03T05:25:16;103465.81;;;1.98;68.37
73748;BME280;62056;52.130;5.428;2023-04-03T05:27:42;103471.28;;;1.96;67.63
73748;BME280;62056;52.130;5.428;2023-04-03T05:30:09;103472.06;;;1.97;68.04
73748;BME280;62056;52.130;5.428;2023-04-03T05:32:36;103476.50;;;1.96;68.39
73748;BME280;62056;52.130;5.428;2023-04-03T05:35:04;103481.91;;;1.95;68.15
73748;BME280;62056;52.130;5.428;2023-04-03T05:37:32;103474.19;;;1.93;69.34
73748;BME280;62056;52.130;5.428;2023-04-03T05:39:59;103483.06;;;1.92;68.10
73748;BME280;62056;52.130;5.428;2023-04-03T05:42:26;103482.25;;;1.92;68.40
73748;BME280;62056;52.130;5.428;2023-04-03T05:44:53;103488.31;;;1.92;68.94
73748;BME280;62056;52.130;5.428;2023-04-03T05:47:19;103485.69;;;1.92;68.99
73748;BME280;62056;52.130;5.428;2023-04-03T05:49:46;103492.91;;;1.90;69.21
73748;BME280;62056;52.130;5.428;2023-04-03T05:54:49;103504.22;;;1.91;69.14
73748;BME280;62056;52.130;5.428;2023-04-03T05:57:16;103499.78;;;1.91;68.92
73748;BME280;62056;52.130;5.428;2023-04-03T05:59:43;103500.63;;;1.92;68.79
73748;BME280;62056;52.130;5.428;2023-04-03T06:02:12;103505.88;;;1.92;69.33
73748;BME280;62056;52.130;5.428;2023-04-03T06:04:39;103505.03;;;1.91;68.96
73748;BME280;62056;52.130;5.428;2023-04-03T06:07:06;103510.13;;;1.93;69.02
73748;BME280;62056;52.130;5.428;2023-04-03T06:09:33;103509.81;;;1.96;69.45
73748;BME280;62056;52.130;5.428;2023-04-03T06:12:00;103512.78;;;2.01;69.31
73748;BME280;62056;52.130;5.428;2023-04-03T06:14:27;103513.59;;;2.10;69.79
73748;BME280;62056;52.130;5.428;2023-04-03T06:17:21;103512.28;;;2.22;70.66
73748;BME280;62056;52.130;5.428;2023-04-03T06:20:16;103510.31;;;2.32;70.47
73748;BME280;62056;52.130;5.428;2023-04-03T06:22:42;103512.78;;;2.42;70.96
73748;BME280;62056;52.130;5.428;2023-04-03T06:25:09;103519.63;;;2.51;71.04
73748;BME280;62056;52.130;5.428;2023-04-03T06:27:36;103518.66;;;2.60;71.36
73748;BME280;62056;52.130;5.428;2023-04-03T06:30:04;103515.97;;;2.69;72.34
73748;BME280;62056;52.130;5.428;2023-04-03T06:32:31;103521.06;;;2.78;71.97
73748;BME280;62056;52.130;5.428;2023-04-03T06:34:58;103518.25;;;2.88;71.67
73748;BME280;62056;52.130;5.428;2023-04-03T06:37:25;103518.53;;;3.01;72.03
73748;BME280;62056;52.130;5.428;2023-04-03T06:39:52;103527.69;;;3.14;72.65
73748;BME280;62056;52.130;5.428;2023-04-03T06:42:19;103523.69;;;3.26;73.05
73748;BME280;62056;52.130;5.428;2023-04-03T06:44:46;103532.84;;;3.38;73.77
73748;BME280;62056;52.130;5.428;2023-04-03T06:47:14;103530.31;;;3.53;74.17
73748;BME280;62056;52.130;5.428;2023-04-03T06:49:42;103530.22;;;3.70;72.90
73748;BME280;62056;52.130;5.428;2023-04-03T06:52:09;103534.38;;;3.87;73.91
73748;BME280;62056;52.130;5.428;2023-04-03T06:54:36;103541.19;;;4.04;73.35
73748;BME280;62056;52.130;5.428;2023-04-03T06:57:02;103544.72;;;4.12;75.17
73748;BME280;62056;52.130;5.428;2023-04-03T06:59:29;103543.91;;;4.11;72.31
73748;BME280;62056;52.130;5.428;2023-04-03T07:01:56;103545.53;;;4.12;72.77
73748;BME280;62056;52.130;5.428;2023-04-03T07:04:25;103550.09;;;4.18;74.62
73748;BME280;62056;52.130;5.428;2023-04-03T07:06:52;103545.78;;;4.25;75.52
73748;BME280;62056;52.130;5.428;2023-04-03T07:09:19;103556.13;;;4.27;75.68
73748;BME280;62056;52.130;5.428;2023-04-03T07:11:47;103556.59;;;4.31;74.61
73748;BME280;62056;52.130;5.428;2023-04-03T07:14:13;103557.53;;;4.38;76.95
73748;BME280;62056;52.130;5.428;2023-04-03T07:16:41;103557.00;;;4.42;74.98
73748;BME280;62056;52.130;5.428;2023-04-03T07:19:08;103558.94;;;4.49;74.02
73748;BME280;62056;52.130;5.428;2023-04-03T07:21:35;103557.19;;;4.56;74.53
73748;BME280;62056;52.130;5.428;2023-04-03T07:24:02;103559.13;;;4.62;74.13
73748;BME280;62056;52.130;5.428;2023-04-03T07:26:29;103553.94;;;4.69;74.95
73748;BME280;62056;52.130;5.428;2023-04-03T07:28:56;103571.34;;;4.78;75.50
73748;BME280;62056;52.130;5.428;2023-04-03T07:31:23;103558.63;;;4.81;75.02
73748;BME280;62056;52.130;5.428;2023-04-03T07:33:51;103568.44;;;4.88;75.33
73748;BME280;62056;52.130;5.428;2023-04-03T07:36:20;103567.91;;;4.92;74.51
73748;BME280;62056;52.130;5.428;2023-04-03T07:38:47;103568.63;;;5.01;75.20
73748;BME280;62056;52.130;5.428;2023-04-03T07:41:16;103573.34;;;5.05;74.72
73748;BME280;62056;52.130;5.428;2023-04-03T07:43:44;103576.69;;;5.14;74.88
73748;BME280;62056;52.130;5.428;2023-04-03T07:46:11;103578.63;;;5.20;74.32
73748;BME280;62056;52.130;5.428;2023-04-03T07:48:38;103586.19;;;5.23;70.75
73748;BME280;62056;52.130;5.428;2023-04-03T07:51:05;103574.88;;;5.30;73.20
73748;BME280;62056;52.130;5.428;2023-04-03T07:53:32;103576.81;;;5.36;73.28
73748;BME280;62056;52.130;5.428;2023-04-03T07:55:59;103580.06;;;5.38;71.94
73748;BME280;62056;52.130;5.428;2023-04-03T07:58:26;103582.34;;;5.41;69.76
73748;BME280;62056;52.130;5.428;2023-04-03T08:00:55;103588.06;;;5.44;70.57
73748;BME280;62056;52.130;5.428;2023-04-03T08:03:56;103583.66;;;5.52;69.60
73748;BME280;62056;52.130;5.428;2023-04-03T08:06:23;103580.50;;;5.56;69.07
73748;BME280;62056;52.130;5.428;2023-04-03T08:09:07;103579.94;;;5.61;64.63
73748;BME280;62056;52.130;5.428;2023-04-03T08:11:34;103586.72;;;5.70;68.27
73748;BME280;62056;52.130;5.428;2023-04-03T08:14:03;103580.47;;;5.71;69.31
73748;BME280;62056;52.130;5.428;2023-04-03T08:16:30;103579.91;;;5.76;68.78
73748;BME280;62056;52.130;5.428;2023-04-03T08:18:56;103582.59;;;5.82;67.99
73748;BME280;62056;52.130;5.428;2023-04-03T08:21:23;103587.31;;;5.87;67.66
73748;BME280;62056;52.130;5.428;2023-04-03T08:23:50;103591.78;;;5.86;64.08
73748;BME280;62056;52.130;5.428;2023-04-03T08:26:20;103591.03;;;5.93;63.78
73748;BME280;62056;52.130;5.428;2023-04-03T08:28:48;103590.16;;;6.00;64.53
73748;BME280;62056;52.130;5.428;2023-04-03T08:31:18;103600.78;;;6.07;66.08
73748;BME280;62056;52.130;5.428;2023-04-03T08:33:46;103593.72;;;6.14;65.29
73748;BME280;62056;52.130;5.428;2023-04-03T08:36:20;103598.25;;;6.20;62.74
73748;BME280;62056;52.130;5.428;2023-04-03T08:38:48;103601.34;;;6.24;60.15
73748;BME280;62056;52.130;5.428;2023-04-03T08:41:25;103604.22;;;6.29;57.78
73748;BME280;62056;52.130;5.428;2023-04-03T08:52:05;103599.41;;;6.61;60.40
73748;BME280;62056;52.130;5.428;2023-04-03T08:54:48;103600.72;;;6.72;57.77
73748;BME280;62056;52.130;5.428;2023-04-03T08:57:26;103593.44;;;6.80;58.97
73748;BME280;62056;52.130;5.428;2023-04-03T08:59:56;103597.97;;;6.86;56.43
73748;BME280;62056;52.130;5.428;2023-04-03T09:02:29;103596.72;;;6.82;54.03
73748;BME280;62056;52.130;5.428;2023-04-03T09:04:59;103597.97;;;6.86;54.81
73748;BME280;62056;52.130;5.428;2023-04-03T09:07:37;103592.72;;;6.93;53.69
73748;BME280;62056;52.130;5.428;2023-04-03T09:10:06;103596.41;;;6.99;54.29
73748;BME280;62056;52.130;5.428;2023-04-03T09:12:39;103592.81;;;7.06;54.96
73748;BME280;62056;52.130;5.428;2023-04-03T09:15:18;103581.00;;;7.09;47.33
73748;BME280;62056;52.130;5.428;2023-04-03T09:18:03;103600.19;;;7.18;51.89
73748;BME280;62056;52.130;5.428;2023-04-03T09:20:49;103598.00;;;7.28;53.70
73748;BME280;62056;52.130;5.428;2023-04-03T09:23:27;103582.94;;;7.28;47.12
73748;BME280;62056;52.130;5.428;2023-04-03T09:26:02;103584.41;;;7.38;47.08
73748;BME280;62056;52.130;5.428;2023-04-03T09:28:38;103596.06;;;7.50;48.09
73748;BME280;62056;52.130;5.428;2023-04-03T09:31:27;103584.06;;;7.54;47.80
73748;BME280;62056;52.130;5.428;2023-04-03T09:34:02;103584.69;;;7.63;48.77
73748;BME280;62056;52.130;5.428;2023-04-03T09:36:44;103584.69;;;7.63;42.85
73748;BME280;62056;52.130;5.428;2023-04-03T09:39:25;103576.16;;;7.67;44.63
73748;BME280;62056;52.130;5.428;2023-04-03T09:44:30;103579.84;;;7.73;44.43
73748;BME280;62056;52.130;5.428;2023-04-03T09:46:57;103584.13;;;7.74;42.92
73748;BME280;62056;52.130;5.428;2023-04-03T09:49:24;103570.06;;;7.80;42.26
73748;BME280;62056;52.130;5.428;2023-04-03T09:51:52;103577.22;;;7.86;43.19
73748;BME280;62056;52.130;5.428;2023-04-03T09:54:31;103574.19;;;7.96;43.16
73748;BME280;62056;52.130;5.428;2023-04-03T09:57:06;103563.41;;;8.04;42.21
73748;BME280;62056;52.130;5.428;2023-04-03T09:59:33;103558.47;;;8.08;43.23
73748;BME280;62056;52.130;5.428;2023-04-03T10:02:23;103555.03;;;8.14;41.57
73748;BME280;62056;52.130;5.428;2023-04-03T10:04:54;103545.88;;;8.23;41.61
73748;BME280;62056;52.130;5.428;2023-04-03T10:07:37;103544.22;;;8.29;38.90
73748;BME280;62056;52.130;5.428;2023-04-03T10:10:22;103539.94;;;8.35;39.94
73748;BME280;62056;52.130;5.428;2023-04-03T10:13:04;103540.56;;;8.43;38.53
73748;BME280;62056;52.130;5.428;2023-04-03T10:15:41;103541.59;;;8.49;41.26
73748;BME280;62056;52.130;5.428;2023-04-03T10:21:24;103535.66;;;8.60;40.74
73748;BME280;62056;52.130;5.428;2023-04-03T10:24:11;103527.47;;;8.68;41.71
73748;BME280;62056;52.130;5.428;2023-04-03T10:26:49;103523.38;;;8.79;41.83
73748;BME280;62056;52.130;5.428;2023-04-03T10:29:37;103527.47;;;8.75;35.77
73748;BME280;62056;52.130;5.428;2023-04-03T10:32:20;103519.69;;;8.80;38.74
73748;BME280;62056;52.130;5.428;2023-04-03T10:37:59;103501.53;;;8.70;33.71
73748;BME280;62056;52.130;5.428;2023-04-03T10:43:50;103496.59;;;8.87;37.34
73748;BME280;62056;52.130;5.428;2023-04-03T10:46:32;103503.31;;;8.97;37.76
73748;BME280;62056;52.130;5.428;2023-04-03T10:51:45;103485.91;;;9.07;34.69
73748;BME280;62056;52.130;5.428;2023-04-03T10:54:26;103485.50;;;9.10;34.90
73748;BME280;62056;52.130;5.428;2023-04-03T10:57:00;103500.16;;;9.20;35.97
73748;BME280;62056;52.130;5.428;2023-04-03T10:59:43;103487.28;;;9.23;34.02
73748;BME280;62056;52.130;5.428;2023-04-03T11:02:17;103491.94;;;9.28;36.16
73748;BME280;62056;52.130;5.428;2023-04-03T11:05:13;103490.28;;;9.34;36.66
73748;BME280;62056;52.130;5.428;2023-04-03T11:07:46;103479.00;;;9.38;35.53
73748;BME280;62056;52.130;5.428;2023-04-03T11:10:24;103486.34;;;9.43;33.20
73748;BME280;62056;52.130;5.428;2023-04-03T11:12:57;103479.16;;;9.50;35.85
73748;BME280;62056;52.130;5.428;2023-04-03T11:15:29;103484.63;;;9.55;35.55
73748;BME280;62056;52.130;5.428;2023-04-03T11:18:04;103482.56;;;9.57;36.85
73748;BME280;62056;52.130;5.428;2023-04-03T11:20:36;103484.56;;;9.62;34.53
73748;BME280;62056;52.130;5.428;2023-04-03T11:23:29;103475.59;;;9.63;35.37
73748;BME280;62056;52.130;5.428;2023-04-03T11:26:19;103471.25;;;9.68;35.42
73748;BME280;62056;52.130;5.428;2023-04-03T11:29:00;103469.31;;;9.82;36.08
73748;BME280;62056;52.130;5.428;2023-04-03T11:32:00;103466.44;;;9.84;34.72
73748;BME280;62056;52.130;5.428;2023-04-03T11:34:42;103473.38;;;9.85;36.08
73748;BME280;62056;52.130;5.428;2023-04-03T11:37:28;103485.38;;;9.94;35.78
73748;BME280;62056;52.130;5.428;2023-04-03T11:40:01;103475.56;;;9.95;33.55
73748;BME280;62056;52.130;5.428;2023-04-03T11:42:37;103475.69;;;10.00;36.09
73748;BME280;62056;52.130;5.428;2023-04-03T11:45:34;103459.72;;;10.06;35.28
73748;BME280;62056;52.130;5.428;2023-04-03T11:51:02;103464.19;;;10.06;34.87
73748;BME280;62056;52.130;5.428;2023-04-03T11:58:27;103464.09;;;10.19;36.05
73748;BME280;62056;52.130;5.428;2023-04-03T12:00:56;103454.63;;;10.23;35.52
73748;BME280;62056;52.130;5.428;2023-04-03T12:08:52;103440.56;;;10.41;35.62
73748;BME280;62056;52.130;5.428;2023-04-03T12:11:26;103444.69;;;10.37;33.38
73748;BME280;62056;52.130;5.428;2023-04-03T12:14:24;103440.50;;;10.48;34.25
73748;BME280;62056;52.130;5.428;2023-04-03T12:16:55;103428.69;;;10.44;33.11
73748;BME280;62056;52.130;5.428;2023-04-03T12:19:37;103431.78;;;10.59;35.92
73748;BME280;62056;52.130;5.428;2023-04-03T12:22:13;103431.91;;;10.64;35.06
73748;BME280;62056;52.130;5.428;2023-04-03T12:24:42;103413.44;;;10.69;34.39
73748;BME280;62056;52.130;5.428;2023-04-03T12:27:28;103418.53;;;10.71;33.32
73748;BME280;62056;52.130;5.428;2023-04-03T12:30:11;103414.22;;;10.70;34.37
73748;BME280;62056;52.130;5.428;2023-04-03T12:35:31;103404.69;;;10.62;31.58
73748;BME280;62056;52.130;5.428;2023-04-03T12:38:41;103391.91;;;10.71;34.47
73748;BME280;62056;52.130;5.428;2023-04-03T12:44:03;103402.00;;;10.81;34.13
73748;BME280;62056;52.130;5.428;2023-04-03T12:46:37;103395.28;;;10.78;34.55
73748;BME280;62056;52.130;5.428;2023-04-03T12:51:47;103372.16;;;10.79;34.16
73748;BME280;62056;52.130;5.428;2023-04-03T12:54:30;103383.38;;;10.81;33.12
73748;BME280;62056;52.130;5.428;2023-04-03T12:57:20;103379.44;;;10.83;34.12
73748;BME280;62056;52.130;5.428;2023-04-03T12:59:50;103373.69;;;10.86;34.53
73748;BME280;62056;52.130;5.428;2023-04-03T13:02:31;103363.47;;;10.83;33.24
73748;BME280;62056;52.130;5.428;2023-04-03T13:05:07;103372.19;;;10.90;33.84
73748;BME280;62056;52.130;5.428;2023-04-03T13:07:37;103358.56;;;10.99;34.91
73748;BME280;62056;52.130;5.428;2023-04-03T13:10:16;103360.19;;;11.00;33.74
73748;BME280;62056;52.130;5.428;2023-04-03T13:12:55;103361.13;;;11.05;34.22
73748;BME280;62056;52.130;5.428;2023-04-03T13:15:28;103364.25;;;11.02;32.24
73748;BME280;62056;52.130;5.428;2023-04-03T13:17:55;103360.09;;;11.06;34.13
73748;BME280;62056;52.130;5.428;2023-04-03T13:20:27;103354.09;;;11.11;34.20
73748;BME280;62056;52.130;5.428;2023-04-03T13:23:08;103344.81;;;11.13;32.68
73748;BME280;62056;52.130;5.428;2023-04-03T13:25:41;103347.25;;;11.15;33.21
73748;BME280;62056;52.130;5.428;2023-04-03T13:28:15;103344.72;;;11.20;33.78
73748;BME280;62056;52.130;5.428;2023-04-03T13:33:28;103351.69;;;11.33;34.26
73748;BME280;62056;52.130;5.428;2023-04-03T13:36:07;103340.78;;;11.34;32.23
73748;BME280;62056;52.130;5.428;2023-04-03T13:38:37;103343.25;;;11.36;34.03
73748;BME280;62056;52.130;5.428;2023-04-03T13:41:21;103341.03;;;11.33;34.13
73748;BME280;62056;52.130;5.428;2023-04-03T13:43:49;103345.91;;;11.48;34.69
73748;BME280;62056;52.130;5.428;2023-04-03T13:46:25;103345.91;;;11.48;33.54
73748;BME280;62056;52.130;5.428;2023-04-03T13:48:55;103348.22;;;11.44;34.07
73748;BME280;62056;52.130;5.428;2023-04-03T13:51:26;103352.19;;;11.42;31.24
73748;BME280;62056;52.130;5.428;2023-04-03T13:53:59;103357.38;;;11.48;33.29
73748;BME280;62056;52.130;5.428;2023-04-03T13:56:35;103346.94;;;11.47;33.00
73748;BME280;62056;52.130;5.428;2023-04-03T13:59:21;103347.75;;;11.47;31.75
73748;BME280;62056;52.130;5.428;2023-04-03T14:02:23;103346.03;;;11.53;34.03
73748;BME280;62056;52.130;5.428;2023-04-03T14:05:08;103334.66;;;11.58;33.77
73748;BME280;62056;52.130;5.428;2023-04-03T14:07:34;103338.25;;;11.63;34.08
73748;BME280;62056;52.130;5.428;2023-04-03T14:10:02;103332.22;;;11.68;34.06
73748;BME280;62056;52.130;5.428;2023-04-03T14:12:38;103335.47;;;11.70;31.77
73748;BME280;62056;52.130;5.428;2023-04-03T14:15:20;103326.22;;;11.61;32.11
73748;BME280;62056;52.130;5.428;2023-04-03T14:17:50;103326.53;;;11.64;33.72
73748;BME280;62056;52.130;5.428;2023-04-03T14:20:28;103324.00;;;11.69;32.97